sensor_id;sensor_type;location;lat;lon;timestamp;temperature;humidity
8736;DHT22;4404;49.308;12.178;2022-10-04T00:05:13;9.20;99.90
8736;DHT22;4404;49.308;12.178;2022-10-04T00:11:21;9.10;99.90
8736;DHT22;4404;49.308;12.178;2022-10-04T00:17:28;9.00;99.90
8736;DHT22;4404;49.308;12.178;2022-10-04T00:23:46;9.00;99.90
8736;DHT22;4404;49.308;12.178;2022-10-04T00:30:12;9.00;99.90
8736;DHT22;4404;49.308;12.178;2022-10-04T00:36:43;8.90;99.90
8736;DHT22;4404;49.308;12.178;2022-10-04T00:42:53;8.90;99.90
8736;DHT22;4404;49.308;12.178;2022-10-04T00:49:02;8.90;99.90
8736;DHT22;4404;49.308;12.178;2022-10-04T00:55:20;9.00;99.90
8736;DHT22;4404;49.308;12.178;2022-10-04T01:01:26;8.70;99.90
8736;DHT22;4404;49.308;12.178;2022-10-04T01:07:32;8.60;99.90
8736;DHT22;4404;49.308;12.178;2022-10-04T01:13:43;8.50;99.90
8736;DHT22;4404;49.308;12.178;2022-10-04T01:19:51;8.50;99.90
8736;DHT22;4404;49.308;12.178;2022-10-04T01:25:56;8.40;99.90
8736;DHT22;4404;49.308;12.178;2022-10-04T01:31:59;8.40;99.90
8736;DHT22;4404;49.308;12.178;2022-10-04T01:38:03;8.50;99.90
8736;DHT22;4404;49.308;12.178;2022-10-04T01:44:11;8.50;99.90
8736;DHT22;4404;49.308;12.178;2022-10-04T01:50:24;8.40;99.90
8736;DHT22;4404;49.308;12.178;2022-10-04T01:56:33;8.30;99.90
8736;DHT22;4404;49.308;12.178;2022-10-04T02:02:44;8.10;99.90
8736;DHT22;4404;49.308;12.178;2022-10-04T02:08:52;7.90;99.90
8736;DHT22;4404;49.308;12.178;2022-10-04T02:14:59;7.80;99.90
8736;DHT22;4404;49.308;12.178;2022-10-04T02:21:04;7.80;99.90
8736;DHT22;4404;49.308;12.178;2022-10-04T02:27:08;7.90;99.90
8736;DHT22;4404;49.308;12.178;2022-10-04T02:33:10;7.70;99.90
8736;DHT22;4404;49.308;12.178;2022-10-04T02:39:16;7.80;99.90
8736;DHT22;4404;49.308;12.178;2022-10-04T02:45:28;7.90;99.90
8736;DHT22;4404;49.308;12.178;2022-10-04T02:51:41;7.90;99.90
8736;DHT22;4404;49.308;12.178;2022-10-04T02:57:48;8.00;99.90
8736;DHT22;4404;49.308;12.178;2022-10-04T03:03:54;7.90;99.90
8736;DHT22;4404;49.308;12.178;2022-10-04T03:09:56;7.70;99.90
8736;DHT22;4404;49.308;12.178;2022-10-04T03:16:01;7.60;99.90
8736;DHT22;4404;49.308;12.178;2022-10-04T03:22:08;7.50;99.90
8736;DHT22;4404;49.308;12.178;2022-10-04T03:28:11;7.40;99.90
8736;DHT22;4404;49.308;12.178;2022-10-04T03:34:17;7.50;99.90
8736;DHT22;4404;49.308;12.178;2022-10-04T03:40:23;7.50;99.90
8736;DHT22;4404;49.308;12.178;2022-10-04T03:46:28;7.60;99.90
8736;DHT22;4404;49.308;12.178;2022-10-04T03:52:34;7.70;99.90
8736;DHT22;4404;49.308;12.178;2022-10-04T03:58:37;7.70;99.90
8736;DHT22;4404;49.308;12.178;2022-10-04T04:04:44;7.70;99.90
8736;DHT22;4404;49.308;12.178;2022-10-04T04:10:55;7.80;99.90
8736;DHT22;4404;49.308;12.178;2022-10-04T04:17:28;7.80;99.90
8736;DHT22;4404;49.308;12.178;2022-10-04T04:23:36;7.60;99.90
8736;DHT22;4404;49.308;12.178;2022-10-04T04:29:45;7.70;99.90
8736;DHT22;4404;49.308;12.178;2022-10-04T04:35:54;7.70;99.90
8736;DHT22;4404;49.308;12.178;2022-10-04T04:42:02;7.50;99.90
8736;DHT22;4404;49.308;12.178;2022-10-04T04:48:13;7.30;99.90
8736;DHT22;4404;49.308;12.178;2022-10-04T04:54:17;7.40;99.90
8736;DHT22;4404;49.308;12.178;2022-10-04T05:00:28;7.50;99.90
8736;DHT22;4404;49.308;12.178;2022-10-04T05:06:35;7.60;99.90
8736;DHT22;4404;49.308;12.178;2022-10-04T05:12:38;7.60;99.90
8736;DHT22;4404;49.308;12.178;2022-10-04T05:18:41;7.70;99.90
8736;DHT22;4404;49.308;12.178;2022-10-04T05:24:46;7.70;99.90
8736;DHT22;4404;49.308;12.178;2022-10-04T05:31:06;7.60;99.90
8736;DHT22;4404;49.308;12.178;2022-10-04T05:37:34;7.70;99.90
8736;DHT22;4404;49.308;12.178;2022-10-04T05:43:46;7.60;99.90
8736;DHT22;4404;49.308;12.178;2022-10-04T05:49:53;7.70;99.90
8736;DHT22;4404;49.308;12.178;2022-10-04T05:56:05;7.70;99.90
8736;DHT22;4404;49.308;12.178;2022-10-04T06:02:29;7.70;99.90
8736;DHT22;4404;49.308;12.178;2022-10-04T06:08:45;7.90;99.90
8736;DHT22;4404;49.308;12.178;2022-10-04T06:21:39;7.90;99.90
8736;DHT22;4404;49.308;12.178;2022-10-04T06:28:04;8.00;99.90
8736;DHT22;4404;49.308;12.178;2022-10-04T06:34:38;8.10;99.90
8736;DHT22;4404;49.308;12.178;2022-10-04T06:41:23;8.00;99.90
8736;DHT22;4404;49.308;12.178;2022-10-04T06:47:56;8.10;99.90
8736;DHT22;4404;49.308;12.178;2022-10-04T06:54:19;8.20;99.90
8736;DHT22;4404;49.308;12.178;2022-10-04T08:37:07;9.40;99.90
8736;DHT22;4404;49.308;12.178;2022-10-04T08:50:44;9.50;99.90
8736;DHT22;4404;49.308;12.178;2022-10-04T08:57:19;9.50;99.90
8736;DHT22;4404;49.308;12.178;2022-10-04T09:26:05;10.20;99.90
8736;DHT22;4404;49.308;12.178;2022-10-04T09:32:53;10.30;99.90
8736;DHT22;4404;49.308;12.178;2022-10-04T10:01:10;11.50;99.90
8736;DHT22;4404;49.308;12.178;2022-10-04T10:14:21;12.10;99.90
8736;DHT22;4404;49.308;12.178;2022-10-04T10:28:00;12.40;99.90
8736;DHT22;4404;49.308;12.178;2022-10-04T10:35:07;12.50;99.90
8736;DHT22;4404;49.308;12.178;2022-10-04T10:41:40;12.60;99.90
8736;DHT22;4404;49.308;12.178;2022-10-04T10:48:46;12.60;99.90
8736;DHT22;4404;49.308;12.178;2022-10-04T11:24:06;13.60;99.90
8736;DHT22;4404;49.308;12.178;2022-10-04T11:38:02;14.10;99.90
8736;DHT22;4404;49.308;12.178;2022-10-04T11:44:44;14.40;99.90
8736;DHT22;4404;49.308;12.178;2022-10-04T11:58:30;14.70;99.90
8736;DHT22;4404;49.308;12.178;2022-10-04T12:11:51;15.20;99.90
8736;DHT22;4404;49.308;12.178;2022-10-04T12:18:47;15.40;99.90
8736;DHT22;4404;49.308;12.178;2022-10-04T12:25:30;15.70;99.90
8736;DHT22;4404;49.308;12.178;2022-10-04T12:31:45;15.90;99.90
8736;DHT22;4404;49.308;12.178;2022-10-04T12:38:12;16.20;99.90
8736;DHT22;4404;49.308;12.178;2022-10-04T12:44:32;16.50;99.90
8736;DHT22;4404;49.308;12.178;2022-10-04T12:50:51;16.60;99.90
8736;DHT22;4404;49.308;12.178;2022-10-04T12:57:08;16.90;99.90
8736;DHT22;4404;49.308;12.178;2022-10-04T13:03:37;17.10;99.90
8736;DHT22;4404;49.308;12.178;2022-10-04T13:10:08;17.10;99.90
8736;DHT22;4404;49.308;12.178;2022-10-04T13:16:32;17.30;99.90
8736;DHT22;4404;49.308;12.178;2022-10-04T13:22:48;17.40;99.90
8736;DHT22;4404;49.308;12.178;2022-10-04T13:28:57;17.60;99.90
8736;DHT22;4404;49.308;12.178;2022-10-04T13:35:12;17.70;99.90
8736;DHT22;4404;49.308;12.178;2022-10-04T13:41:27;17.70;99.60
8736;DHT22;4404;49.308;12.178;2022-10-04T13:47:55;17.90;98.80
8736;DHT22;4404;49.308;12.178;2022-10-04T13:54:22;17.90;99.90
8736;DHT22;4404;49.308;12.178;2022-10-04T14:01:12;18.10;98.30
8736;DHT22;4404;49.308;12.178;2022-10-04T14:29:14;18.20;98.50
8736;DHT22;4404;49.308;12.178;2022-10-04T14:35:44;18.30;98.50
8736;DHT22;4404;49.308;12.178;2022-10-04T14:42:21;18.40;97.80
8736;DHT22;4404;49.308;12.178;2022-10-04T14:49:12;18.40;97.60
8736;DHT22;4404;49.308;12.178;2022-10-04T14:56:00;18.60;96.20
8736;DHT22;4404;49.308;12.178;2022-10-04T15:02:38;18.40;96.70
8736;DHT22;4404;49.308;12.178;2022-10-04T15:09:20;18.40;96.20
8736;DHT22;4404;49.308;12.178;2022-10-04T15:15:52;18.50;95.80
8736;DHT22;4404;49.308;12.178;2022-10-04T15:22:18;18.30;95.10
8736;DHT22;4404;49.308;12.178;2022-10-04T15:28:53;18.30;94.60
8736;DHT22;4404;49.308;12.178;2022-10-04T15:35:26;18.20;95.40
8736;DHT22;4404;49.308;12.178;2022-10-04T15:41:56;18.10;95.70
8736;DHT22;4404;49.308;12.178;2022-10-04T15:48:56;17.80;95.40
8736;DHT22;4404;49.308;12.178;2022-10-04T15:55:57;17.40;95.30
8736;DHT22;4404;49.308;12.178;2022-10-04T16:09:33;16.80;96.30
8736;DHT22;4404;49.308;12.178;2022-10-04T16:15:44;16.60;96.20
8736;DHT22;4404;49.308;12.178;2022-10-04T16:22:25;16.30;96.30
8736;DHT22;4404;49.308;12.178;2022-10-04T16:29:07;16.10;96.70
8736;DHT22;4404;49.308;12.178;2022-10-04T16:35:36;15.80;99.90
8736;DHT22;4404;49.308;12.178;2022-10-04T16:42:03;15.30;99.90
8736;DHT22;4404;49.308;12.178;2022-10-04T16:48:33;14.80;99.90
8736;DHT22;4404;49.308;12.178;2022-10-04T17:09:03;13.90;99.90
8736;DHT22;4404;49.308;12.178;2022-10-04T17:15:36;13.80;99.90
8736;DHT22;4404;49.308;12.178;2022-10-04T17:21:56;13.50;99.90
8736;DHT22;4404;49.308;12.178;2022-10-04T17:28:19;13.40;99.90
8736;DHT22;4404;49.308;12.178;2022-10-04T17:34:43;13.30;99.90
8736;DHT22;4404;49.308;12.178;2022-10-04T17:40:58;13.10;99.90
8736;DHT22;4404;49.308;12.178;2022-10-04T17:47:10;12.90;99.90
8736;DHT22;4404;49.308;12.178;2022-10-04T17:53:18;12.80;99.90
8736;DHT22;4404;49.308;12.178;2022-10-04T17:59:44;12.70;99.90
8736;DHT22;4404;49.308;12.178;2022-10-04T18:05:54;12.60;99.90
8736;DHT22;4404;49.308;12.178;2022-10-04T18:12:00;12.50;99.90
8736;DHT22;4404;49.308;12.178;2022-10-04T18:18:17;12.40;99.90
8736;DHT22;4404;49.308;12.178;2022-10-04T18:24:27;12.30;99.90
8736;DHT22;4404;49.308;12.178;2022-10-04T18:30:33;12.30;99.90
8736;DHT22;4404;49.308;12.178;2022-10-04T18:37:02;12.20;99.90
8736;DHT22;4404;49.308;12.178;2022-10-04T18:43:24;12.10;99.90
8736;DHT22;4404;49.308;12.178;2022-10-04T18:49:46;12.00;99.90
8736;DHT22;4404;49.308;12.178;2022-10-04T18:55:57;12.00;99.90
8736;DHT22;4404;49.308;12.178;2022-10-04T19:02:10;11.90;99.90
8736;DHT22;4404;49.308;12.178;2022-10-04T19:08:31;11.80;99.90
8736;DHT22;4404;49.308;12.178;2022-10-04T19:14:45;11.70;99.90
8736;DHT22;4404;49.308;12.178;2022-10-04T19:20:59;11.70;99.90
8736;DHT22;4404;49.308;12.178;2022-10-04T19:27:18;11.60;99.90
8736;DHT22;4404;49.308;12.178;2022-10-04T19:33:35;11.60;99.90
8736;DHT22;4404;49.308;12.178;2022-10-04T19:39:53;11.50;99.90
8736;DHT22;4404;49.308;12.178;2022-10-04T19:46:07;11.50;99.90
8736;DHT22;4404;49.308;12.178;2022-10-04T19:52:22;11.50;99.90
8736;DHT22;4404;49.308;12.178;2022-10-04T19:58:38;11.40;99.90
8736;DHT22;4404;49.308;12.178;2022-10-04T20:04:45;11.40;99.90
8736;DHT22;4404;49.308;12.178;2022-10-04T20:11:20;11.40;99.90
8736;DHT22;4404;49.308;12.178;2022-10-04T20:17:47;11.30;99.90
8736;DHT22;4404;49.308;12.178;2022-10-04T20:24:48;11.20;99.90
8736;DHT22;4404;49.308;12.178;2022-10-04T20:31:32;11.20;99.90
8736;DHT22;4404;49.308;12.178;2022-10-04T20:38:19;11.20;99.90
8736;DHT22;4404;49.308;12.178;2022-10-04T20:44:55;11.10;99.90
8736;DHT22;4404;49.308;12.178;2022-10-04T20:51:11;11.10;99.90
8736;DHT22;4404;49.308;12.178;2022-10-04T20:57:43;11.00;99.90
8736;DHT22;4404;49.308;12.178;2022-10-04T21:04:18;10.90;99.90
8736;DHT22;4404;49.308;12.178;2022-10-04T21:11:06;10.80;99.90
8736;DHT22;4404;49.308;12.178;2022-10-04T21:17:35;10.70;99.90
8736;DHT22;4404;49.308;12.178;2022-10-04T21:23:40;10.80;99.90
8736;DHT22;4404;49.308;12.178;2022-10-04T21:29:45;10.70;99.90
8736;DHT22;4404;49.308;12.178;2022-10-04T21:35:50;10.70;99.90
8736;DHT22;4404;49.308;12.178;2022-10-04T21:41:54;10.60;99.90
8736;DHT22;4404;49.308;12.178;2022-10-04T21:47:58;10.60;99.90
8736;DHT22;4404;49.308;12.178;2022-10-04T21:54:04;10.50;99.90
8736;DHT22;4404;49.308;12.178;2022-10-04T22:00:08;10.40;99.90
8736;DHT22;4404;49.308;12.178;2022-10-04T22:06:13;10.40;99.90
8736;DHT22;4404;49.308;12.178;2022-10-04T22:12:19;10.30;99.90
8736;DHT22;4404;49.308;12.178;2022-10-04T22:18:26;10.30;99.90
8736;DHT22;4404;49.308;12.178;2022-10-04T22:24:29;10.20;99.90
8736;DHT22;4404;49.308;12.178;2022-10-04T22:30:36;10.20;99.90
8736;DHT22;4404;49.308;12.178;2022-10-04T22:36:38;10.10;99.90
8736;DHT22;4404;49.308;12.178;2022-10-04T22:42:41;10.20;99.90
8736;DHT22;4404;49.308;12.178;2022-10-04T22:48:48;10.30;99.90
8736;DHT22;4404;49.308;12.178;2022-10-04T22:54:54;10.10;99.90
8736;DHT22;4404;49.308;12.178;2022-10-04T23:01:00;10.00;99.90
8736;DHT22;4404;49.308;12.178;2022-10-04T23:07:04;9.90;99.90
8736;DHT22;4404;49.308;12.178;2022-10-04T23:13:07;9.90;99.90
8736;DHT22;4404;49.308;12.178;2022-10-04T23:19:11;9.80;99.90
8736;DHT22;4404;49.308;12.178;2022-10-04T23:25:18;9.80;99.90
8736;DHT22;4404;49.308;12.178;2022-10-04T23:31:24;9.80;99.90
8736;DHT22;4404;49.308;12.178;2022-10-04T23:37:30;9.70;99.90
8736;DHT22;4404;49.308;12.178;2022-10-04T23:43:35;9.60;99.90
8736;DHT22;4404;49.308;12.178;2022-10-04T23:49:37;9.70;99.90
8736;DHT22;4404;49.308;12.178;2022-10-04T23:55:41;9.60;99.90
